メインページ
METAR-TAF:

METAR-TAF

空港 :

Pottstown Limerick Airport

Pottstown, ペンシルバニア州, アメリカ合衆国

緯度: 40-14-18N, 経度: 075-33-26W, 海抜: 89m

現時点の気象観測

当レポートは47分前の05:54(UTC)に作成
北/北西の風 8kt
気温 8°C
湿度 76%
気圧 1013 hPa
視程: 16.1km
高度4100ftの雲はほとんどない
高度5500ftの雲は散在している
高度8000ftの曇り

METAR: KPTW 040554Z AUTO 33008KT 10SM FEW041 SCT055 OVC080 08/04 A2992 RMK AO2 SLP130 60000 T00780044 10089 20078 50003

時間: 02:41 (06:41 UTC)


TAF: 見つかりません

4,000以上の空港の気象観測と天気予報(METAR報とTAF報)

利用可能な観測所は地図上に黄色い丸と赤い丸で示す。

丸の上にカーソルを重ねると観測所名を参照できる。

次にクリックすると気象観測と天気予報を参照できる。

マップの切り替え:黒色「×」印の緑ボタンをクリックして拡大、「-」印の緑ボタンをクリックして縮小、緑色の三角印をクリックして隣りの地図に切り替え


METAR-TAF: